createdAt,value
2022-11-24T00:01:24.391Z,99.90
2022-11-24T00:04:03.452Z,99.90
2022-11-24T00:06:32.969Z,99.90
2022-11-24T00:09:02.015Z,99.90
2022-11-24T00:11:33.257Z,99.90
2022-11-24T00:14:01.872Z,99.90
2022-11-24T00:16:32.169Z,99.90
2022-11-24T00:19:01.921Z,99.90
2022-11-24T00:21:31.228Z,99.90
2022-11-24T00:23:59.485Z,99.90
2022-11-24T00:26:33.130Z,99.90
2022-11-24T00:29:03.142Z,99.90
2022-11-24T00:31:36.199Z,99.90
2022-11-24T00:34:06.833Z,99.90
2022-11-24T00:36:36.557Z,99.90
2022-11-24T00:39:11.051Z,99.90
2022-11-24T00:41:39.089Z,99.90
2022-11-24T00:44:07.246Z,99.90
2022-11-24T00:46:35.159Z,99.90
2022-11-24T00:49:02.994Z,99.90
2022-11-24T00:51:31.172Z,99.90
2022-11-24T00:54:00.091Z,99.90
2022-11-24T00:56:29.164Z,99.90
2022-11-24T00:58:57.031Z,99.90
2022-11-24T01:01:27.526Z,99.90
2022-11-24T01:03:55.802Z,99.90
2022-11-24T01:06:26.129Z,99.90
2022-11-24T01:08:54.722Z,99.90
2022-11-24T01:11:28.445Z,99.90
2022-11-24T01:13:57.987Z,99.90
2022-11-24T01:16:27.961Z,99.90
2022-11-24T01:18:56.474Z,99.90
2022-11-24T01:21:24.488Z,99.90
2022-11-24T01:23:52.261Z,99.90
2022-11-24T01:26:22.241Z,99.90
2022-11-24T01:28:57.072Z,99.90
2022-11-24T01:31:26.160Z,99.90
2022-11-24T01:33:54.216Z,99.90
2022-11-24T01:36:22.768Z,99.90
2022-11-24T01:38:50.586Z,99.90
2022-11-24T01:41:23.830Z,99.90
2022-11-24T01:43:53.229Z,99.90
2022-11-24T01:46:26.873Z,99.90
2022-11-24T01:49:14.630Z,99.90
2022-11-24T01:51:57.029Z,99.90
2022-11-24T01:54:38.624Z,99.90
2022-11-24T01:57:16.472Z,99.90
2022-11-24T01:59:47.103Z,99.90
2022-11-24T02:02:15.239Z,99.90
2022-11-24T02:04:44.122Z,99.90
2022-11-24T02:07:12.904Z,99.90
2022-11-24T02:09:49.482Z,99.90
2022-11-24T02:12:17.323Z,99.90
2022-11-24T02:14:45.973Z,99.90
2022-11-24T02:17:13.556Z,99.90
2022-11-24T02:19:41.199Z,99.90
2022-11-24T02:22:20.325Z,99.90
2022-11-24T02:24:51.939Z,99.90
2022-11-24T02:27:19.995Z,99.90
2022-11-24T02:29:48.592Z,99.90
2022-11-24T02:32:16.724Z,99.90
2022-11-24T02:34:44.353Z,99.90
2022-11-24T02:37:11.875Z,99.90
2022-11-24T02:39:39.425Z,99.90
2022-11-24T02:42:11.204Z,99.90
2022-11-24T02:44:46.923Z,99.90
2022-11-24T02:47:14.503Z,99.90
2022-11-24T02:49:42.228Z,99.90
2022-11-24T02:52:09.844Z,99.90
2022-11-24T02:54:37.585Z,99.90
2022-11-24T02:57:05.322Z,99.90
2022-11-24T02:59:32.914Z,99.90
2022-11-24T03:02:00.607Z,99.90
2022-11-24T03:04:28.304Z,99.90
2022-11-24T03:06:56.096Z,99.90
2022-11-24T03:09:23.684Z,99.90
2022-11-24T03:11:51.244Z,99.90
2022-11-24T03:14:18.790Z,99.90
2022-11-24T03:16:46.325Z,99.90
2022-11-24T03:19:13.881Z,99.90
2022-11-24T03:21:41.444Z,99.90
2022-11-24T03:24:09.037Z,99.90
2022-11-24T03:26:38.447Z,99.90
2022-11-24T03:29:06.064Z,99.90
2022-11-24T03:31:34.180Z,99.90
2022-11-24T03:34:01.839Z,99.90
2022-11-24T03:36:29.427Z,99.90
2022-11-24T03:38:57.022Z,99.90
2022-11-24T03:41:24.599Z,99.90
2022-11-24T03:43:52.224Z,99.90
2022-11-24T03:46:19.888Z,99.90
2022-11-24T03:48:47.487Z,99.90
2022-11-24T03:51:15.413Z,99.90
2022-11-24T03:53:42.986Z,99.90
2022-11-24T03:56:10.546Z,99.90
2022-11-24T03:58:38.096Z,99.90
2022-11-24T04:01:05.680Z,99.90
2022-11-24T04:03:33.285Z,99.90
2022-11-24T04:06:00.826Z,99.90
2022-11-24T04:08:28.424Z,99.90
2022-11-24T04:10:56.035Z,99.90
2022-11-24T04:13:25.162Z,99.90
2022-11-24T04:15:53.560Z,99.90
2022-11-24T04:18:21.714Z,99.90
2022-11-24T04:20:51.097Z,99.90
2022-11-24T04:23:19.241Z,99.90
2022-11-24T04:25:46.883Z,99.90
2022-11-24T04:28:14.651Z,99.90
2022-11-24T04:30:44.590Z,99.90
2022-11-24T04:33:13.099Z,99.90
2022-11-24T04:35:40.792Z,99.90
2022-11-24T04:38:08.433Z,99.90
2022-11-24T04:40:36.758Z,99.90
2022-11-24T04:43:04.413Z,99.90
2022-11-24T04:45:34.223Z,99.90
2022-11-24T04:48:01.856Z,99.90
2022-11-24T04:50:29.454Z,99.90
2022-11-24T04:52:57.150Z,99.90
2022-11-24T04:55:24.717Z,99.90
2022-11-24T04:57:52.337Z,99.90
2022-11-24T05:00:20.248Z,99.90
2022-11-24T05:02:47.907Z,99.90
2022-11-24T05:05:15.528Z,99.90
2022-11-24T05:07:43.215Z,99.90
2022-11-24T05:10:29.231Z,99.90
2022-11-24T05:12:59.559Z,99.90
2022-11-24T05:15:27.472Z,99.90
2022-11-24T05:17:55.253Z,99.90
2022-11-24T05:20:23.804Z,99.90
2022-11-24T05:22:51.523Z,99.90
2022-11-24T05:25:19.127Z,99.90
2022-11-24T05:27:46.721Z,99.90
2022-11-24T05:30:14.653Z,99.90
2022-11-24T05:32:43.779Z,99.90
2022-11-24T05:35:22.141Z,99.90
2022-11-24T05:38:25.351Z,99.90
2022-11-24T05:41:31.035Z,99.90
2022-11-24T05:44:26.288Z,99.90
2022-11-24T05:47:19.666Z,99.90
2022-11-24T05:50:09.314Z,99.90
2022-11-24T05:53:02.829Z,99.90
2022-11-24T05:56:01.653Z,99.90
2022-11-24T05:58:56.913Z,99.90
2022-11-24T06:01:42.889Z,99.90
2022-11-24T06:04:30.986Z,99.90
2022-11-24T06:07:03.091Z,99.90
2022-11-24T06:09:30.851Z,99.90
2022-11-24T06:11:59.227Z,99.90
2022-11-24T06:14:29.112Z,99.90
2022-11-24T06:17:00.761Z,99.90
2022-11-24T06:19:33.094Z,99.90
2022-11-24T06:22:00.918Z,99.90
2022-11-24T06:24:31.098Z,99.90
2022-11-24T06:26:58.875Z,99.90
2022-11-24T06:29:29.495Z,99.90
2022-11-24T06:32:08.884Z,99.90
2022-11-24T06:34:45.418Z,99.90
2022-11-24T06:37:42.873Z,99.90
2022-11-24T06:40:38.232Z,99.90
2022-11-24T06:43:40.768Z,99.90
2022-11-24T06:46:17.252Z,99.90
2022-11-24T06:49:07.864Z,99.90
2022-11-24T06:51:57.692Z,99.90
2022-11-24T06:54:46.411Z,99.90
2022-11-24T07:01:06.188Z,99.90
2022-11-24T07:06:45.564Z,99.90
2022-11-24T07:09:55.549Z,99.90
2022-11-24T07:13:17.320Z,99.90
2022-11-24T07:15:59.940Z,99.90
2022-11-24T07:19:09.489Z,99.90
2022-11-24T07:28:19.773Z,99.90
2022-11-24T07:30:58.496Z,99.90
2022-11-24T07:33:52.065Z,99.90
2022-11-24T07:39:25.441Z,99.90
2022-11-24T07:42:20.267Z,99.90
2022-11-24T07:45:20.953Z,99.90
2022-11-24T07:52:01.895Z,99.90
2022-11-24T07:54:32.179Z,99.90
2022-11-24T07:57:19.150Z,99.90
2022-11-24T08:00:10.939Z,99.90
2022-11-24T08:03:17.928Z,99.90
2022-11-24T08:06:31.817Z,99.90
2022-11-24T08:09:32.292Z,99.90
2022-11-24T08:12:35.630Z,99.90
2022-11-24T08:15:38.281Z,99.90
2022-11-24T08:18:48.181Z,99.90
2022-11-24T08:21:41.971Z,99.90
2022-11-24T08:25:03.265Z,99.90
2022-11-24T08:27:57.271Z,99.90
2022-11-24T08:31:31.166Z,99.90
2022-11-24T08:34:44.825Z,99.90
2022-11-24T08:37:37.975Z,99.90
2022-11-24T08:40:15.298Z,99.90
2022-11-24T08:42:51.659Z,99.90
2022-11-24T08:45:29.453Z,99.90
2022-11-24T08:48:10.328Z,99.90
2022-11-24T08:51:05.922Z,99.90
2022-11-24T08:57:34.431Z,99.90
2022-11-24T09:00:25.799Z,99.90
2022-11-24T09:03:27.497Z,99.90
2022-11-24T09:09:08.078Z,99.90
2022-11-24T09:11:51.035Z,99.90
2022-11-24T09:14:42.568Z,99.90
2022-11-24T09:20:55.332Z,99.90
2022-11-24T09:30:15.412Z,99.90
2022-11-24T09:33:03.151Z,99.90
2022-11-24T09:35:36.463Z,99.90
2022-11-24T09:38:10.267Z,99.90
2022-11-24T09:40:37.938Z,99.90
2022-11-24T09:43:18.520Z,99.90
2022-11-24T09:46:06.378Z,99.90
2022-11-24T09:48:44.103Z,99.90
2022-11-24T09:51:13.467Z,99.90
2022-11-24T09:53:47.059Z,73.70
2022-11-24T09:56:27.841Z,85.20
2022-11-24T09:59:08.960Z,69.40
2022-11-24T10:02:01.781Z,64.00
2022-11-24T10:05:11.835Z,52.10
2022-11-24T10:08:58.156Z,44.60
2022-11-24T10:12:23.725Z,20.60
2022-11-24T10:15:32.096Z,13.80
2022-11-24T10:19:11.356Z,44.20
2022-11-24T10:23:09.921Z,1.00
2022-11-24T10:29:22.990Z,1.00
2022-11-24T10:33:46.124Z,1.00
2022-11-24T10:35:48.193Z,1.00
2022-11-24T10:38:24.200Z,99.90
2022-11-24T10:41:02.236Z,1.00
2022-11-24T10:43:35.034Z,99.90
2022-11-24T10:47:10.271Z,98.70
2022-11-24T10:51:10.768Z,99.90
2022-11-24T10:54:30.843Z,99.90
2022-11-24T10:57:45.889Z,1.00
2022-11-24T11:03:50.925Z,99.90
2022-11-24T11:06:57.093Z,1.00
2022-11-24T11:10:51.439Z,1.00
2022-11-24T11:13:51.044Z,1.00
2022-11-24T11:20:20.071Z,99.90
2022-11-24T11:23:54.232Z,1.00
2022-11-24T11:26:56.920Z,1.00
2022-11-24T11:36:33.122Z,1.00
2022-11-24T11:39:49.450Z,1.00
2022-11-24T11:43:43.099Z,99.90
2022-11-24T11:46:38.707Z,1.00
2022-11-24T11:54:51.072Z,94.90
2022-11-24T11:56:47.012Z,94.00
2022-11-24T12:00:14.821Z,1.00
2022-11-24T12:03:32.775Z,1.00
2022-11-24T12:06:44.831Z,99.90
2022-11-24T12:10:04.589Z,1.00
2022-11-24T12:12:56.746Z,1.00
2022-11-24T12:16:38.009Z,1.00
2022-11-24T12:20:03.292Z,1.00
2022-11-24T12:23:21.127Z,99.90
2022-11-24T12:27:17.971Z,99.90
2022-11-24T12:30:21.732Z,99.90
2022-11-24T12:37:05.486Z,1.00
2022-11-24T12:40:12.357Z,99.90
2022-11-24T12:43:04.120Z,99.90
2022-11-24T12:45:43.717Z,99.90
2022-11-24T12:48:17.368Z,1.00
2022-11-24T12:50:46.180Z,99.90
2022-11-24T12:53:13.831Z,1.00
2022-11-24T12:56:04.555Z,1.00
2022-11-24T12:59:06.883Z,99.90
2022-11-24T13:02:18.425Z,1.00
2022-11-24T13:05:25.942Z,1.00
2022-11-24T13:08:29.072Z,1.00
2022-11-24T13:11:23.429Z,1.00
2022-11-24T13:14:26.967Z,1.00
2022-11-24T13:18:08.609Z,1.00
2022-11-24T13:21:07.268Z,1.00
2022-11-24T13:24:37.008Z,1.00
2022-11-24T13:27:50.204Z,1.00
2022-11-24T13:31:16.961Z,1.00
2022-11-24T13:37:36.197Z,1.00
2022-11-24T13:40:38.190Z,1.00
2022-11-24T13:43:08.648Z,1.00
2022-11-24T13:46:23.064Z,1.00
2022-11-24T13:52:42.300Z,1.00
2022-11-24T13:55:49.374Z,1.00
2022-11-24T13:58:50.947Z,1.00
2022-11-24T14:05:08.693Z,1.00
2022-11-24T14:08:20.537Z,1.00
2022-11-24T14:11:37.313Z,1.00
2022-11-24T14:15:01.082Z,99.90
2022-11-24T14:27:51.153Z,1.00
2022-11-24T14:30:39.527Z,1.00
2022-11-24T14:33:31.746Z,99.90
2022-11-24T14:40:21.668Z,1.00
2022-11-24T14:43:13.622Z,1.00
2022-11-24T14:49:57.462Z,1.00
2022-11-24T14:59:30.534Z,1.00
2022-11-24T15:02:49.991Z,1.00
2022-11-24T15:06:02.416Z,1.00
2022-11-24T15:09:09.577Z,1.00
2022-11-24T15:12:12.548Z,1.00
2022-11-24T15:15:25.181Z,1.00
2022-11-24T15:18:12.164Z,1.00
2022-11-24T15:20:45.255Z,1.00
2022-11-24T15:23:15.869Z,1.00
2022-11-24T15:25:43.548Z,1.00
2022-11-24T15:28:11.999Z,1.00
2022-11-24T15:30:39.720Z,1.00
2022-11-24T15:33:14.708Z,1.00
2022-11-24T15:35:42.933Z,1.00
2022-11-24T15:38:10.793Z,1.00
2022-11-24T15:40:40.940Z,1.00
2022-11-24T15:43:37.150Z,1.00
2022-11-24T15:46:06.087Z,1.00
2022-11-24T15:48:36.735Z,1.00
2022-11-24T15:51:20.788Z,1.00
2022-11-24T15:53:54.111Z,1.00
2022-11-24T15:56:35.615Z,1.00
2022-11-24T15:59:03.902Z,1.00
2022-11-24T16:01:34.349Z,1.30
2022-11-24T16:04:02.429Z,2.70
2022-11-24T16:06:30.624Z,20.10
2022-11-24T16:08:58.980Z,24.70
2022-11-24T16:11:26.765Z,29.30
2022-11-24T16:14:15.072Z,58.90
2022-11-24T16:16:42.980Z,50.00
2022-11-24T16:19:10.866Z,70.80
2022-11-24T16:21:38.484Z,71.40
2022-11-24T16:24:06.576Z,84.00
2022-11-24T16:26:34.183Z,90.70
2022-11-24T16:29:01.914Z,92.70
2022-11-24T16:31:29.707Z,94.60
2022-11-24T16:33:57.566Z,98.10
2022-11-24T16:36:35.626Z,98.80
2022-11-24T16:39:08.783Z,96.10
2022-11-24T16:41:43.116Z,95.70
2022-11-24T16:44:13.883Z,96.30
2022-11-24T16:46:47.394Z,99.90
2022-11-24T16:49:17.448Z,99.90
2022-11-24T16:51:48.407Z,99.90
2022-11-24T16:54:18.380Z,99.90
2022-11-24T16:56:48.127Z,99.90
2022-11-24T16:59:17.345Z,99.90
2022-11-24T17:01:46.689Z,99.90
2022-11-24T17:04:23.899Z,99.90
2022-11-24T17:07:02.318Z,99.90
2022-11-24T17:09:40.834Z,99.90
2022-11-24T17:12:14.563Z,99.90
2022-11-24T17:15:32.736Z,99.90
2022-11-24T17:18:23.620Z,99.90
2022-11-24T17:20:51.783Z,99.90
2022-11-24T17:23:27.549Z,99.90
2022-11-24T17:26:01.941Z,99.90
2022-11-24T17:28:35.122Z,99.90
2022-11-24T17:31:07.875Z,99.90
2022-11-24T17:33:39.059Z,99.90
2022-11-24T17:36:10.129Z,99.90
2022-11-24T17:38:40.386Z,99.90
2022-11-24T17:41:13.993Z,99.90
2022-11-24T17:43:43.067Z,99.90
2022-11-24T17:46:13.508Z,99.90
2022-11-24T17:48:41.127Z,99.90
2022-11-24T17:51:15.100Z,99.90
2022-11-24T17:53:45.395Z,99.90
2022-11-24T17:56:15.388Z,99.90
2022-11-24T17:58:43.660Z,99.90
2022-11-24T18:01:12.917Z,99.90
2022-11-24T18:03:41.868Z,99.90
2022-11-24T18:06:12.039Z,99.90
2022-11-24T18:08:41.752Z,99.90
2022-11-24T18:11:16.892Z,99.90
2022-11-24T18:14:01.478Z,99.90
2022-11-24T18:16:31.644Z,99.90
2022-11-24T18:19:08.797Z,99.90
2022-11-24T18:21:41.240Z,99.90
2022-11-24T18:24:10.954Z,99.90
2022-11-24T18:26:42.186Z,99.90
2022-11-24T18:29:11.475Z,99.90
2022-11-24T18:31:39.621Z,99.90
2022-11-24T18:34:07.841Z,99.90
2022-11-24T18:36:35.940Z,99.90
2022-11-24T18:39:09.102Z,99.90
2022-11-24T18:41:36.734Z,99.90
2022-11-24T18:44:07.915Z,99.90
2022-11-24T18:46:37.013Z,99.90
2022-11-24T18:49:06.851Z,99.90
2022-11-24T18:51:34.876Z,99.90
2022-11-24T18:54:04.706Z,99.90
2022-11-24T18:56:32.560Z,99.90
2022-11-24T18:59:00.221Z,99.90
2022-11-24T19:01:29.430Z,99.90
2022-11-24T19:04:00.361Z,99.90
2022-11-24T19:06:33.532Z,99.90
2022-11-24T19:09:13.425Z,99.90
2022-11-24T19:11:44.470Z,99.90
2022-11-24T19:14:17.610Z,99.90
2022-11-24T19:16:47.939Z,99.90
2022-11-24T19:19:16.989Z,99.90
2022-11-24T19:21:45.092Z,99.90
2022-11-24T19:24:15.806Z,99.90
2022-11-24T19:26:43.567Z,99.90
2022-11-24T19:29:11.437Z,99.90
2022-11-24T19:31:40.010Z,99.90
2022-11-24T19:34:08.176Z,99.90
2022-11-24T19:36:38.685Z,99.90
2022-11-24T19:39:07.631Z,99.90
2022-11-24T19:41:35.424Z,99.90
2022-11-24T19:44:03.151Z,99.90
2022-11-24T19:46:31.320Z,99.90
2022-11-24T19:49:05.099Z,99.90
2022-11-24T19:51:34.746Z,99.90
2022-11-24T19:54:03.648Z,99.90
2022-11-24T19:56:34.802Z,99.90
2022-11-24T19:59:04.377Z,99.90
2022-11-24T20:01:38.748Z,99.90
2022-11-24T20:04:14.869Z,99.90
2022-11-24T20:06:45.662Z,99.90
2022-11-24T20:09:17.870Z,99.90
2022-11-24T20:11:45.942Z,99.90
2022-11-24T20:14:15.277Z,99.90
2022-11-24T20:16:43.354Z,99.90
2022-11-24T20:19:13.410Z,99.90
2022-11-24T20:21:42.607Z,99.90
2022-11-24T20:24:15.664Z,99.90
2022-11-24T20:26:58.184Z,99.90
2022-11-24T20:29:26.207Z,99.90
2022-11-24T20:31:55.494Z,99.90
2022-11-24T20:34:24.238Z,99.90
2022-11-24T20:36:55.002Z,99.90
2022-11-24T20:39:31.822Z,99.90
2022-11-24T20:41:59.525Z,99.90
2022-11-24T20:44:27.783Z,99.90
2022-11-24T20:46:57.317Z,99.90
2022-11-24T20:49:25.911Z,99.90
2022-11-24T20:51:57.385Z,99.90
2022-11-24T20:54:25.226Z,99.90
2022-11-24T20:56:53.232Z,99.90
2022-11-24T20:59:22.981Z,99.90
2022-11-24T21:01:52.068Z,99.90
2022-11-24T21:04:22.759Z,99.90
2022-11-24T21:06:50.988Z,99.90
2022-11-24T21:09:19.153Z,99.90
2022-11-24T21:11:49.630Z,99.90
2022-11-24T21:14:17.381Z,99.90
2022-11-24T21:16:44.997Z,99.90
2022-11-24T21:19:14.742Z,99.90
2022-11-24T21:21:43.316Z,99.90
2022-11-24T21:24:15.937Z,99.90
2022-11-24T21:26:47.507Z,99.90
2022-11-24T21:29:18.872Z,99.90
2022-11-24T21:31:46.750Z,99.90
2022-11-24T21:34:16.235Z,99.90
2022-11-24T21:36:44.863Z,99.90
2022-11-24T21:39:14.003Z,99.90
2022-11-24T21:41:42.731Z,99.90
2022-11-24T21:44:14.071Z,99.90
2022-11-24T21:46:46.178Z,99.90
2022-11-24T21:49:17.144Z,99.90
2022-11-24T21:51:44.762Z,99.90
2022-11-24T21:54:12.358Z,99.90
2022-11-24T21:56:39.981Z,99.90
2022-11-24T21:59:07.730Z,99.90
2022-11-24T22:01:35.598Z,99.90
2022-11-24T22:04:03.322Z,99.90
2022-11-24T22:06:31.994Z,99.90
2022-11-24T22:08:59.658Z,99.90
2022-11-24T22:11:27.413Z,99.90
2022-11-24T22:13:55.124Z,99.90
2022-11-24T22:16:24.500Z,99.90
2022-11-24T22:18:52.916Z,99.90
2022-11-24T22:21:29.280Z,99.90
2022-11-24T22:23:56.979Z,99.90
2022-11-24T22:26:25.611Z,99.90
2022-11-24T22:28:57.602Z,99.90
2022-11-24T22:31:30.598Z,99.90
2022-11-24T22:33:59.681Z,99.90
2022-11-24T22:36:29.442Z,99.90
2022-11-24T22:39:04.979Z,99.90
2022-11-24T22:41:34.906Z,99.90
2022-11-24T22:44:03.082Z,99.90
2022-11-24T22:46:31.997Z,99.90
2022-11-24T22:49:01.107Z,99.90
2022-11-24T22:51:32.318Z,99.90
2022-11-24T22:54:02.599Z,99.90
2022-11-24T22:56:32.470Z,99.90
2022-11-24T22:59:01.511Z,99.90
2022-11-24T23:01:30.981Z,99.90
2022-11-24T23:03:58.745Z,99.90
2022-11-24T23:06:29.081Z,99.90
2022-11-24T23:08:58.221Z,99.90
2022-11-24T23:11:37.161Z,99.90
2022-11-24T23:14:08.433Z,99.90
2022-11-24T23:16:36.123Z,99.90
2022-11-24T23:19:04.246Z,99.90
2022-11-24T23:21:33.979Z,99.90
2022-11-24T23:24:02.915Z,99.90
2022-11-24T23:26:35.304Z,99.90
2022-11-24T23:29:04.651Z,99.90
2022-11-24T23:31:32.729Z,99.90
2022-11-24T23:34:02.449Z,99.90
2022-11-24T23:36:30.721Z,99.90
2022-11-24T23:39:05.875Z,99.90
2022-11-24T23:41:34.729Z,99.90
2022-11-24T23:44:02.358Z,99.90
2022-11-24T23:46:30.011Z,99.90
2022-11-24T23:48:57.795Z,99.90
2022-11-24T23:51:30.421Z,99.90
2022-11-24T23:53:59.525Z,99.90
2022-11-24T23:56:32.294Z,99.90
2022-11-24T23:59:03.963Z,99.90
